Syracuse Hancock International Airport
KSYR : now visible

Airfield :











YOU CAN JOIN US ON...

 
LOGIN :

Register | Disclaimer

   EN    FR    IT 

 









Legend :    VFR   Marginal VFR   IFR   Intensive IFR   Very Intensive IFR
Visi :
Ceiling :
>= 8 km
>= 3000ft
5 to 8 km
1000 to 3000 ft
1500m to 5 km
500 to 1000 ft
800 to 1500m
200 to 500 ft
< 800m
< 200 ft
Symbols :   Thunderstorms  Fog  Heavy snow  Heavy precipitations  Wind > 20 kt






- Airport Elevation : 421 ft
- IATA code : SYR


KSYR - Syracuse Hancock International

CURRENT METAR :
  • 080754Z 10006KT 10SM FEW250 M11/M13 A3043 RMK AO2 SLP309 T11061133

EXPIRED METARs :
  • 080654Z 11005KT 10SM FEW030 FEW250 M11/M13 A3044 RMK AO2 SLP313 T11061133
  • 080554Z 13004KT 10SM FEW030 M09/M12 A3045 RMK AO2 SLP314 T10891117 11050 21094 58001

TAF KSYR
Valid from the 08 at 06:00 until the 09 at 06:00 UTC


080537Z 0806/0906 VRB03KT P6SM SKC
FM081300 15007KT P6SM BKN250 WS020/20035KT
FM081800 18011KT P6SM SCT250 WS020/20040KT
FM090000 19008KT P6SM BKN050 WS020/20040KT



MET'MAP, your aeronautical weather chart ! - Copyright ORBIFLY December 2007 - Disclaimer

ORBIFLY MET'MAP TEAM :

Programming & Development : Alexandra Zaïnal
Concept & original design : Baudouin d'Aumeries
Assistance for programming : Marc-Olivier Méhu
Technical & hardware support : Manuel Goepfert

Contact : metmap@orbifly.com




SOURCES & CREDITS :

   NOAA       Earth
Advisory